createdAt,value
2018-05-14T00:01:06.846Z,68.47
2018-05-14T00:04:03.712Z,70.55
2018-05-14T00:09:41.418Z,69.72
2018-05-14T00:12:09.936Z,69.76
2018-05-14T00:14:38.356Z,68.13
2018-05-14T00:17:06.731Z,71.62
2018-05-14T00:19:35.156Z,68.16
2018-05-14T00:22:03.658Z,68.88
2018-05-14T00:24:32.068Z,70.50
2018-05-14T00:27:00.466Z,68.56
2018-05-14T00:29:28.859Z,68.47
2018-05-14T00:31:57.260Z,68.42
2018-05-14T00:34:25.748Z,68.88
2018-05-14T00:36:54.251Z,68.79
2018-05-14T00:39:22.733Z,68.18
2018-05-14T00:41:51.176Z,68.84
2018-05-14T00:44:19.573Z,65.54
2018-05-14T00:46:47.987Z,65.85
2018-05-14T00:49:16.427Z,67.14
2018-05-14T00:51:44.863Z,67.69
2018-05-14T00:54:13.271Z,65.80
2018-05-14T00:56:41.633Z,67.58
2018-05-14T00:59:10.048Z,66.81
2018-05-14T01:01:38.444Z,65.42
2018-05-14T01:04:07.835Z,67.69
2018-05-14T01:06:36.328Z,66.11
2018-05-14T01:09:04.668Z,66.85
2018-05-14T01:11:33.078Z,67.13
2018-05-14T01:14:01.508Z,68.46
2018-05-14T01:16:29.968Z,67.85
2018-05-14T01:18:58.362Z,67.40
2018-05-14T01:21:26.824Z,67.58
2018-05-14T01:23:55.210Z,67.77
2018-05-14T01:26:23.616Z,69.96
2018-05-14T01:28:52.046Z,69.06
2018-05-14T01:31:20.443Z,68.65
2018-05-14T01:33:49.746Z,68.28
2018-05-14T01:36:18.143Z,67.58
2018-05-14T01:38:46.587Z,68.71
2018-05-14T01:41:15.033Z,68.04
2018-05-14T01:43:43.428Z,66.85
2018-05-14T01:46:11.813Z,67.80
2018-05-14T01:48:40.250Z,67.41
2018-05-14T01:51:08.739Z,66.57
2018-05-14T01:53:37.194Z,66.86
2018-05-14T01:56:05.650Z,66.48
2018-05-14T01:58:34.043Z,65.28
2018-05-14T02:01:02.482Z,68.53
2018-05-14T02:03:30.935Z,66.75
2018-05-14T02:05:59.355Z,67.68
2018-05-14T02:08:27.775Z,67.66
2018-05-14T02:10:56.193Z,68.76
2018-05-14T02:13:24.588Z,67.78
2018-05-14T02:15:52.951Z,69.77
2018-05-14T02:18:21.327Z,68.20
2018-05-14T02:20:49.704Z,68.86
2018-05-14T02:23:18.127Z,67.77
2018-05-14T02:25:46.524Z,69.06
2018-05-14T02:28:15.022Z,69.16
2018-05-14T02:30:43.403Z,70.28
2018-05-14T02:33:11.767Z,70.35
2018-05-14T02:35:40.148Z,70.06
2018-05-14T02:38:08.548Z,69.01
2018-05-14T02:40:37.005Z,69.85
2018-05-14T02:43:05.416Z,68.35
2018-05-14T02:45:33.802Z,68.54
2018-05-14T02:48:02.192Z,67.27
2018-05-14T02:50:30.689Z,66.77
2018-05-14T02:52:59.118Z,67.19
2018-05-14T02:55:27.583Z,67.93
2018-05-14T02:57:56.055Z,68.26
2018-05-14T03:03:21.613Z,68.77
2018-05-14T03:05:50.047Z,67.36
2018-05-14T03:08:18.436Z,67.34
2018-05-14T03:10:46.826Z,68.57
2018-05-14T03:13:15.259Z,68.72
2018-05-14T03:18:11.150Z,68.81
2018-05-14T03:20:39.548Z,69.97
2018-05-14T03:23:07.952Z,70.00
2018-05-14T03:25:36.360Z,70.46
2018-05-14T03:28:04.757Z,70.25
2018-05-14T03:30:33.202Z,68.62
2018-05-14T03:33:01.592Z,68.44
2018-05-14T03:35:30.085Z,67.97
2018-05-14T03:37:58.481Z,69.29
2018-05-14T03:40:26.891Z,69.03
2018-05-14T03:42:55.371Z,69.57
2018-05-14T03:45:23.778Z,68.43
2018-05-14T03:47:52.235Z,68.61
2018-05-14T03:50:21.530Z,66.93
2018-05-14T03:52:49.934Z,68.93
2018-05-14T03:55:18.323Z,66.46
2018-05-14T03:57:46.720Z,67.03
2018-05-14T04:00:26.782Z,66.71
2018-05-14T04:03:06.918Z,67.01
2018-05-14T04:05:47.162Z,70.03
2018-05-14T04:08:15.621Z,67.59
2018-05-14T04:10:44.064Z,67.77
2018-05-14T04:13:12.472Z,67.60
2018-05-14T04:15:40.993Z,68.54
2018-05-14T04:18:09.523Z,68.15
2018-05-14T04:20:37.915Z,67.56
2018-05-14T04:23:06.309Z,68.73
2018-05-14T04:25:35.646Z,67.06
2018-05-14T04:28:04.117Z,67.27
2018-05-14T04:30:32.545Z,67.17
2018-05-14T04:33:00.983Z,69.04
2018-05-14T04:35:29.470Z,67.65
2018-05-14T04:37:57.920Z,67.48
2018-05-14T04:40:26.501Z,67.82
2018-05-14T04:42:54.942Z,67.82
2018-05-14T04:45:25.311Z,67.89
2018-05-14T04:47:53.712Z,68.32
2018-05-14T04:50:22.254Z,67.67
2018-05-14T04:52:50.809Z,66.32
2018-05-14T04:55:19.246Z,67.60
2018-05-14T04:57:47.651Z,66.76
2018-05-14T05:00:16.096Z,66.52
2018-05-14T05:02:44.557Z,66.70
2018-05-14T05:05:13.123Z,66.21
2018-05-14T05:07:41.512Z,65.65
2018-05-14T05:10:09.955Z,63.86
2018-05-14T05:12:38.400Z,64.37
2018-05-14T05:15:06.916Z,62.75
2018-05-14T05:17:35.381Z,63.34
2018-05-14T05:20:03.822Z,61.87
2018-05-14T05:22:32.438Z,62.23
2018-05-14T05:25:01.938Z,63.05
2018-05-14T05:27:30.385Z,62.21
2018-05-14T05:29:58.906Z,62.43
2018-05-14T05:32:27.509Z,58.94
2018-05-14T05:34:57.365Z,57.13
2018-05-14T05:37:26.021Z,57.54
2018-05-14T05:39:55.141Z,55.13
2018-05-14T05:42:24.522Z,51.53
2018-05-14T05:44:53.089Z,49.89
2018-05-14T05:47:21.502Z,49.88
2018-05-14T05:49:50.063Z,46.92
2018-05-14T05:52:18.559Z,45.87
2018-05-14T05:54:47.089Z,46.94
2018-05-14T05:57:15.558Z,43.07
2018-05-14T05:59:44.105Z,41.23
2018-05-14T06:02:12.621Z,41.77
2018-05-14T06:04:41.888Z,39.68
2018-05-14T06:07:11.271Z,40.58
2018-05-14T06:09:40.239Z,40.21
2018-05-14T06:12:08.784Z,43.47
2018-05-14T06:14:38.180Z,43.15
2018-05-14T06:17:06.689Z,43.93
2018-05-14T06:19:36.570Z,48.81
2018-05-14T06:22:06.572Z,45.96
2018-05-14T06:24:48.609Z,45.35
2018-05-14T06:27:26.167Z,41.78
2018-05-14T06:30:00.004Z,36.66
2018-05-14T06:32:28.640Z,38.22
2018-05-14T06:40:31.784Z,32.11
2018-05-14T06:45:47.700Z,36.03
2018-05-14T06:48:17.001Z,34.80
2018-05-14T06:50:51.008Z,33.72
2018-05-14T06:53:21.283Z,32.03
2018-05-14T06:55:51.071Z,32.83
2018-05-14T06:58:19.461Z,32.71
2018-05-14T07:00:47.912Z,31.11
2018-05-14T07:03:16.326Z,31.31
2018-05-14T07:05:50.098Z,30.41
2018-05-14T07:08:19.465Z,29.09
2018-05-14T07:10:54.912Z,29.83
2018-05-14T07:13:23.477Z,30.83
2018-05-14T07:15:56.430Z,28.37
2018-05-14T07:18:27.219Z,30.40
2018-05-14T07:20:57.653Z,29.74
2018-05-14T07:23:26.418Z,28.49
2018-05-14T07:25:55.381Z,27.44
2018-05-14T07:28:24.157Z,26.33
2018-05-14T07:30:54.006Z,27.72
2018-05-14T07:42:12.242Z,26.30
2018-05-14T07:44:53.942Z,25.20
2018-05-14T07:47:29.442Z,26.13
2018-05-14T07:50:00.498Z,26.92
2018-05-14T07:52:30.790Z,26.69
2018-05-14T07:57:49.969Z,27.60
2018-05-14T08:00:27.750Z,25.67
2018-05-14T08:03:00.284Z,27.94
2018-05-14T08:08:39.689Z,26.35
2018-05-14T08:11:08.245Z,26.84
2018-05-14T08:13:36.709Z,27.32
2018-05-14T08:16:10.196Z,30.16
2018-05-14T08:18:42.160Z,28.18
2018-05-14T08:21:11.857Z,27.00
2018-05-14T08:26:26.785Z,25.80
2018-05-14T08:28:56.895Z,23.62
2018-05-14T08:31:44.024Z,23.55
2018-05-14T08:34:12.785Z,23.57
2018-05-14T08:36:41.235Z,23.04
2018-05-14T08:39:14.714Z,23.76
2018-05-14T08:41:43.245Z,25.24
2018-05-14T08:44:11.797Z,27.17
2018-05-14T08:46:40.236Z,24.25
2018-05-14T08:49:08.760Z,24.45
2018-05-14T08:51:37.304Z,25.28
2018-05-14T08:54:05.797Z,24.73
2018-05-14T08:56:34.231Z,24.72
2018-05-14T08:59:02.955Z,24.63
2018-05-14T09:01:33.517Z,25.22
2018-05-14T09:04:02.139Z,24.18
2018-05-14T09:06:30.739Z,23.72
2018-05-14T09:08:59.222Z,23.78
2018-05-14T09:11:28.523Z,24.15
2018-05-14T09:13:57.376Z,24.65
2018-05-14T09:16:25.910Z,26.13
2018-05-14T09:18:54.636Z,24.16
2018-05-14T09:21:23.108Z,22.32
2018-05-14T09:23:52.453Z,22.57
2018-05-14T09:26:22.264Z,20.82
2018-05-14T09:28:51.856Z,21.22
2018-05-14T09:31:20.339Z,19.79
2018-05-14T09:33:48.824Z,20.10
2018-05-14T09:36:18.500Z,21.22
2018-05-14T09:38:47.175Z,20.75
2018-05-14T09:41:15.863Z,22.60
2018-05-14T09:43:44.932Z,24.42
2018-05-14T09:46:13.407Z,22.80
2018-05-14T09:48:41.928Z,24.72
2018-05-14T09:51:10.408Z,24.09
2018-05-14T09:53:38.886Z,22.43
2018-05-14T09:56:07.409Z,22.22
2018-05-14T09:58:36.759Z,23.26
2018-05-14T10:01:06.531Z,22.49
2018-05-14T10:03:35.095Z,20.84
2018-05-14T10:06:05.470Z,22.40
2018-05-14T10:08:33.897Z,21.84
2018-05-14T10:11:02.363Z,21.70
2018-05-14T10:13:31.722Z,21.87
2018-05-14T10:16:01.321Z,23.01
2018-05-14T10:18:29.773Z,21.99
2018-05-14T10:20:58.406Z,23.10
2018-05-14T10:23:26.820Z,23.83
2018-05-14T10:25:59.237Z,22.46
2018-05-14T10:28:27.691Z,21.55
2018-05-14T10:30:57.609Z,21.30
2018-05-14T10:33:26.104Z,21.55
2018-05-14T10:38:34.645Z,21.83
2018-05-14T10:41:03.093Z,20.06
2018-05-14T10:43:32.891Z,20.67
2018-05-14T10:46:02.055Z,20.47
2018-05-14T10:48:37.333Z,22.16
2018-05-14T10:51:07.555Z,19.97
2018-05-14T10:53:38.672Z,21.82
2018-05-14T10:56:07.314Z,20.87
2018-05-14T10:58:36.476Z,22.49
2018-05-14T11:01:05.334Z,22.24
2018-05-14T11:03:34.401Z,20.98
2018-05-14T11:06:03.198Z,19.85
2018-05-14T11:08:31.764Z,19.80
2018-05-14T11:11:00.280Z,19.29
2018-05-14T11:13:28.751Z,20.07
2018-05-14T11:15:57.185Z,19.24
2018-05-14T11:18:25.815Z,18.50
2018-05-14T11:20:54.351Z,21.04
2018-05-14T11:23:24.294Z,23.25
2018-05-14T11:25:53.713Z,24.11
2018-05-14T11:28:28.551Z,23.34
2018-05-14T11:30:57.532Z,23.09
2018-05-14T11:33:26.184Z,24.59
2018-05-14T11:35:57.969Z,25.89
2018-05-14T11:38:27.818Z,25.35
2018-05-14T11:40:58.657Z,26.51
2018-05-14T11:43:27.280Z,26.08
2018-05-14T11:45:55.674Z,26.46
2018-05-14T11:48:24.130Z,24.96
2018-05-14T11:50:52.724Z,25.25
2018-05-14T11:53:20.971Z,25.98
2018-05-14T11:55:49.626Z,24.66
2018-05-14T11:58:18.197Z,24.34
2018-05-14T12:00:46.803Z,24.33
2018-05-14T12:03:16.192Z,24.36
2018-05-14T12:05:44.989Z,24.87
2018-05-14T12:08:14.347Z,25.36
2018-05-14T12:10:45.742Z,24.90
2018-05-14T12:13:18.747Z,26.07
2018-05-14T12:15:47.296Z,24.62
2018-05-14T12:18:16.829Z,25.50
2018-05-14T12:20:53.332Z,25.37
2018-05-14T12:23:24.786Z,25.59
2018-05-14T12:25:53.281Z,25.17
2018-05-14T12:28:21.716Z,25.62
2018-05-14T12:30:51.596Z,25.08
2018-05-14T12:33:21.152Z,24.13
2018-05-14T12:35:54.832Z,24.40
2018-05-14T12:38:27.513Z,23.67
2018-05-14T12:40:57.195Z,23.54
2018-05-14T12:43:25.785Z,24.98
2018-05-14T12:45:54.285Z,25.11
2018-05-14T12:48:28.362Z,24.75
2018-05-14T12:50:56.927Z,24.80
2018-05-14T12:56:08.137Z,23.92
2018-05-14T12:58:45.044Z,25.46
2018-05-14T13:01:13.644Z,24.14
2018-05-14T13:03:42.076Z,25.23
2018-05-14T13:06:10.464Z,25.06
2018-05-14T13:08:38.948Z,24.69
2018-05-14T13:11:07.794Z,23.98
2018-05-14T13:13:36.758Z,23.91
2018-05-14T13:16:05.208Z,24.32
2018-05-14T13:18:33.880Z,24.39
2018-05-14T13:21:03.723Z,23.67
2018-05-14T13:23:33.887Z,23.23
2018-05-14T13:26:02.549Z,22.56
2018-05-14T13:28:31.407Z,22.94
2018-05-14T13:31:00.044Z,22.74
2018-05-14T13:33:28.630Z,22.94
2018-05-14T13:35:57.308Z,23.17
2018-05-14T13:38:26.553Z,23.22
2018-05-14T13:40:54.960Z,22.66
2018-05-14T13:43:23.538Z,21.66
2018-05-14T13:45:51.978Z,21.50
2018-05-14T13:48:20.647Z,23.27
2018-05-14T13:50:49.231Z,23.52
2018-05-14T13:53:18.037Z,24.24
2018-05-14T13:55:46.590Z,25.10
2018-05-14T13:58:14.978Z,24.92
2018-05-14T14:00:43.445Z,23.16
2018-05-14T14:03:11.888Z,24.24
2018-05-14T14:05:40.375Z,24.35
2018-05-14T14:08:09.717Z,25.40
2018-05-14T14:10:38.096Z,25.09
2018-05-14T14:13:06.587Z,24.58
2018-05-14T14:15:36.329Z,23.09
2018-05-14T14:18:04.908Z,23.55
2018-05-14T14:20:33.484Z,24.09
2018-05-14T14:23:01.939Z,23.47
2018-05-14T14:25:30.646Z,23.72
2018-05-14T14:27:59.173Z,24.40
2018-05-14T14:30:27.792Z,24.00
2018-05-14T14:32:56.748Z,24.56
2018-05-14T14:35:25.373Z,24.98
2018-05-14T14:37:53.856Z,24.75
2018-05-14T14:40:22.717Z,24.69
2018-05-14T14:42:51.407Z,24.49
2018-05-14T14:45:19.949Z,25.11
2018-05-14T14:47:49.473Z,26.12
2018-05-14T14:50:19.161Z,26.32
2018-05-14T14:52:47.679Z,26.26
2018-05-14T14:55:16.143Z,25.08
2018-05-14T14:57:44.647Z,24.99
2018-05-14T15:00:13.189Z,24.80
2018-05-14T15:02:41.820Z,24.68
2018-05-14T15:05:10.244Z,25.86
2018-05-14T15:07:38.625Z,26.29
2018-05-14T15:10:07.134Z,28.66
2018-05-14T15:12:35.672Z,29.54
2018-05-14T15:15:04.775Z,30.41
2018-05-14T15:17:33.211Z,30.44
2018-05-14T15:20:02.653Z,31.68
2018-05-14T15:22:31.150Z,31.52
2018-05-14T15:25:01.917Z,30.87
2018-05-14T15:27:30.527Z,31.55
2018-05-14T15:29:59.080Z,31.55
2018-05-14T15:32:29.286Z,32.43
2018-05-14T15:34:58.190Z,33.37
2018-05-14T15:37:26.958Z,32.56
2018-05-14T15:39:56.444Z,31.99
2018-05-14T15:42:24.871Z,31.90
2018-05-14T15:44:54.814Z,31.44
2018-05-14T15:47:23.904Z,30.52
2018-05-14T15:49:52.742Z,31.67
2018-05-14T15:52:21.472Z,31.41
2018-05-14T15:54:50.118Z,30.76
2018-05-14T15:57:19.051Z,30.23
2018-05-14T15:59:48.357Z,30.57
2018-05-14T16:02:17.275Z,30.55
2018-05-14T16:04:47.346Z,30.51
2018-05-14T16:07:16.198Z,31.59
2018-05-14T16:09:45.229Z,31.09
2018-05-14T16:12:14.512Z,30.21
2018-05-14T16:14:43.273Z,30.39
2018-05-14T16:17:11.877Z,29.61
2018-05-14T16:19:44.305Z,30.56
2018-05-14T16:22:12.931Z,30.25
2018-05-14T16:24:41.378Z,29.73
2018-05-14T16:27:09.872Z,29.84
2018-05-14T16:29:38.369Z,31.19
2018-05-14T16:32:06.787Z,29.96
2018-05-14T16:34:47.891Z,30.68
2018-05-14T16:37:16.421Z,29.16
2018-05-14T16:39:44.954Z,29.14
2018-05-14T16:42:14.160Z,30.33
2018-05-14T16:44:43.664Z,29.27
2018-05-14T16:47:14.689Z,30.12
2018-05-14T16:49:43.184Z,30.02
2018-05-14T16:52:11.717Z,29.83
2018-05-14T16:54:40.183Z,29.41
2018-05-14T16:57:08.683Z,29.08
2018-05-14T16:59:37.311Z,30.04
2018-05-14T17:02:05.814Z,29.49
2018-05-14T17:04:34.322Z,29.69
2018-05-14T17:07:02.755Z,29.93
2018-05-14T17:09:32.169Z,30.65
2018-05-14T17:12:00.588Z,30.09
2018-05-14T17:14:29.057Z,30.45
2018-05-14T17:16:57.642Z,30.08
2018-05-14T17:19:26.091Z,30.07
2018-05-14T17:21:54.607Z,30.49
2018-05-14T17:24:24.016Z,30.47
2018-05-14T17:26:52.841Z,29.78
2018-05-14T17:29:21.303Z,30.80
2018-05-14T17:31:49.725Z,30.58
2018-05-14T17:34:18.193Z,31.00
2018-05-14T17:36:46.649Z,30.62
2018-05-14T17:39:15.817Z,30.92
2018-05-14T17:41:44.378Z,29.77
2018-05-14T17:44:12.843Z,30.40
2018-05-14T17:46:41.313Z,29.71
2018-05-14T17:49:09.731Z,29.76
2018-05-14T17:51:38.881Z,29.70
2018-05-14T17:54:08.227Z,29.75
2018-05-14T17:56:38.031Z,30.53
2018-05-14T17:59:06.466Z,30.65
2018-05-14T18:01:34.961Z,29.94
2018-05-14T18:04:04.610Z,30.20
2018-05-14T18:06:33.085Z,29.28
2018-05-14T18:09:02.452Z,29.97
2018-05-14T18:11:30.975Z,30.03
2018-05-14T18:14:06.134Z,29.75
2018-05-14T18:16:34.647Z,29.72
2018-05-14T18:19:03.116Z,29.71
2018-05-14T18:21:37.534Z,30.66
2018-05-14T18:24:05.952Z,30.48
2018-05-14T18:26:40.699Z,31.38
2018-05-14T18:29:11.043Z,30.68
2018-05-14T18:31:45.033Z,30.98
2018-05-14T18:34:16.427Z,30.97
2018-05-14T18:36:56.722Z,31.52
2018-05-14T18:39:25.564Z,31.86
2018-05-14T18:41:54.008Z,31.75
2018-05-14T18:44:27.935Z,31.54
2018-05-14T18:46:56.469Z,32.42
2018-05-14T18:49:25.039Z,32.14
2018-05-14T18:51:53.584Z,32.58
2018-05-14T18:54:22.993Z,32.99
2018-05-14T18:56:51.468Z,32.91
2018-05-14T18:59:20.627Z,33.46
2018-05-14T19:08:07.727Z,33.59
2018-05-14T19:10:41.631Z,34.41
2018-05-14T19:13:13.246Z,33.94
2018-05-14T19:15:48.144Z,33.65
2018-05-14T19:18:16.544Z,34.16
2018-05-14T19:20:46.059Z,33.71
2018-05-14T19:23:20.129Z,33.81
2018-05-14T19:25:48.541Z,33.82
2018-05-14T19:28:22.511Z,32.36
2018-05-14T19:30:50.978Z,33.79
2018-05-14T19:33:25.157Z,33.04
2018-05-14T19:36:03.560Z,32.94
2018-05-14T19:38:31.942Z,31.83
2018-05-14T19:41:00.333Z,31.70
2018-05-14T19:43:28.722Z,30.91
2018-05-14T19:45:57.231Z,30.71
2018-05-14T19:48:25.690Z,32.54
2018-05-14T19:50:54.121Z,34.43
2018-05-14T19:53:22.591Z,32.04
2018-05-14T19:55:50.982Z,32.75
2018-05-14T19:58:19.447Z,35.79
2018-05-14T20:00:49.481Z,30.46
2018-05-14T20:03:19.798Z,29.80
2018-05-14T20:05:56.615Z,29.77
2018-05-14T20:08:25.604Z,28.87
2018-05-14T20:10:54.228Z,28.95
2018-05-14T20:16:06.732Z,30.32
2018-05-14T20:18:35.804Z,34.73
2018-05-14T20:21:04.394Z,31.61
2018-05-14T20:23:33.207Z,31.24
2018-05-14T20:26:01.635Z,33.04
2018-05-14T20:28:30.163Z,35.26
2018-05-14T20:30:58.642Z,31.41
2018-05-14T20:33:27.030Z,33.20
2018-05-14T20:35:55.436Z,35.92
2018-05-14T20:38:23.850Z,33.33
2018-05-14T20:40:53.261Z,36.40
2018-05-14T20:43:21.931Z,33.91
2018-05-14T20:45:50.380Z,35.21
2018-05-14T20:48:18.862Z,35.17
2018-05-14T20:50:47.704Z,35.90
2018-05-14T20:53:16.265Z,36.30
2018-05-14T20:55:44.671Z,36.08
2018-05-14T20:58:13.178Z,37.37
2018-05-14T21:00:41.592Z,38.40
2018-05-14T21:03:11.185Z,38.19
2018-05-14T21:05:44.599Z,38.79
2018-05-14T21:08:13.444Z,39.46
2018-05-14T21:10:42.984Z,40.31
2018-05-14T21:13:11.965Z,41.71
2018-05-14T21:15:41.098Z,39.73
2018-05-14T21:18:10.011Z,41.17
2018-05-14T21:20:39.494Z,41.95
2018-05-14T21:23:10.420Z,42.30
2018-05-14T21:25:39.368Z,43.39
2018-05-14T21:28:09.115Z,42.92
2018-05-14T21:30:38.781Z,43.22
2018-05-14T21:33:08.041Z,41.98
2018-05-14T21:35:37.024Z,43.07
2018-05-14T21:38:05.614Z,43.66
2018-05-14T21:40:35.512Z,43.74
2018-05-14T21:43:04.480Z,43.26
2018-05-14T21:45:33.422Z,43.66
2018-05-14T21:48:02.222Z,43.97
2018-05-14T21:50:31.112Z,44.87
2018-05-14T21:53:00.047Z,44.12
2018-05-14T21:55:29.620Z,45.59
2018-05-14T21:57:58.848Z,45.29
2018-05-14T22:00:27.684Z,45.28
2018-05-14T22:02:56.406Z,44.40
2018-05-14T22:05:25.257Z,45.91
2018-05-14T22:07:54.129Z,45.38
2018-05-14T22:10:23.100Z,45.83
2018-05-14T22:12:51.792Z,44.44
2018-05-14T22:15:20.312Z,45.50
2018-05-14T22:17:48.795Z,46.39
2018-05-14T22:20:17.222Z,46.71
2018-05-14T22:22:45.747Z,47.66
2018-05-14T22:25:14.136Z,46.70
2018-05-14T22:27:42.573Z,47.49
2018-05-14T22:30:10.952Z,48.37
2018-05-14T22:32:39.433Z,47.42
2018-05-14T22:35:07.849Z,48.60
2018-05-14T22:37:36.253Z,47.02
2018-05-14T22:40:04.772Z,47.05
2018-05-14T22:42:33.217Z,47.58
2018-05-14T22:45:01.598Z,47.36
2018-05-14T22:47:30.000Z,48.48
2018-05-14T22:49:58.543Z,49.96
2018-05-14T22:52:27.050Z,48.07
2018-05-14T22:54:55.450Z,48.44
2018-05-14T22:57:23.942Z,48.50
2018-05-14T22:59:52.339Z,48.91
2018-05-14T23:02:20.728Z,49.37
2018-05-14T23:04:49.123Z,49.57
2018-05-14T23:07:18.431Z,48.99
2018-05-14T23:09:46.849Z,48.93
2018-05-14T23:12:15.305Z,48.60
2018-05-14T23:14:43.746Z,49.37
2018-05-14T23:17:12.151Z,48.50
2018-05-14T23:19:40.611Z,49.73
2018-05-14T23:22:09.033Z,50.04
2018-05-14T23:24:38.173Z,48.82
2018-05-14T23:27:06.773Z,50.83
2018-05-14T23:29:35.259Z,50.45
2018-05-14T23:32:04.776Z,50.52
2018-05-14T23:34:33.534Z,50.08
2018-05-14T23:37:02.014Z,49.99
2018-05-14T23:39:30.604Z,50.64
2018-05-14T23:42:04.392Z,51.32
2018-05-14T23:44:32.952Z,50.73
2018-05-14T23:47:02.016Z,50.91
2018-05-14T23:49:30.407Z,49.98
2018-05-14T23:51:58.910Z,51.74
2018-05-14T23:54:27.448Z,50.57
2018-05-14T23:56:55.827Z,50.50
2018-05-14T23:59:24.314Z,50.44
